Time;durP1;ratioP1;P1;durP2;ratioP2;P2;SDS_P1;SDS_P2;PMS_P1;PMS_P2;Temp;Humidity;BMP_temperature;BMP_pressure;BME280_temperature;BME280_humidity;BME280_pressure;Samples;Min_cycle;Max_cycle;Signal;HPM_P1;HPM_P2
2023/11/07 00:01:33;;;;;;;1999.90;999.90;;;;;;;12.39;85.93;100483.78;10377480;28;20140;-64
2023/11/07 00:06:35;;;;;;;1999.90;999.90;;;;;;;12.38;87.41;100482.13;10377838;28;20041;-64
2023/11/07 00:11:39;;;;;;;1999.90;999.90;;;;;;;12.53;84.73;100491.53;10377661;28;20054;-64
2023/11/07 00:16:42;;;;;;;1999.90;999.90;;;;;;;12.31;85.57;100505.34;10376909;28;20042;-64
2023/11/07 00:21:44;;;;;;;1999.90;999.90;;;;;;;12.42;86.05;100509.81;10376743;28;20493;-64
2023/11/07 00:26:46;;;;;;;1999.90;999.90;;;;;;;12.39;88.28;100510.03;10377065;28;20042;-64
2023/11/07 00:31:52;;;;;;;1999.90;999.90;;;;;;;12.31;88.42;100520.25;10376326;28;20057;-64
2023/11/07 00:36:54;;;;;;;1999.90;999.90;;;;;;;12.55;86.98;100528.19;10376731;28;20056;-64
2023/11/07 00:41:57;;;;;;;1999.90;999.90;;;;;;;11.99;87.29;100531.16;10376551;28;20052;-64
2023/11/07 00:47:00;;;;;;;1999.90;999.90;;;;;;;12.19;88.23;100528.03;10375763;28;20053;-64
2023/11/07 00:52:03;;;;;;;1999.90;999.90;;;;;;;12.50;85.30;100531.16;10376141;28;20141;-64
2023/11/07 00:57:05;;;;;;;1999.90;999.90;;;;;;;12.66;84.38;100535.31;10375174;28;20064;-64
2023/11/07 01:02:08;;;;;;;1999.90;999.90;;;;;;;12.42;86.46;100538.72;10375886;28;20100;-64
2023/11/07 01:07:10;;;;;;;1999.90;999.90;;;;;;;12.24;87.17;100540.84;10375027;28;20412;-64
2023/11/07 01:12:13;;;;;;;1999.90;999.90;;;;;;;12.64;85.70;100543.28;10375622;28;20054;-64
2023/11/07 01:17:16;;;;;;;1999.90;999.90;;;;;;;12.78;85.63;100553.69;10375372;28;20080;-64
2023/11/07 01:22:20;;;;;;;1999.90;999.90;;;;;;;12.69;83.97;100549.06;10375135;28;20111;-64
2023/11/07 01:27:22;;;;;;;1999.90;999.90;;;;;;;12.50;86.09;100551.31;10374483;28;20694;-64
2023/11/07 01:32:24;;;;;;;1999.90;999.90;;;;;;;12.43;86.06;100564.84;10373293;28;20049;-64
2023/11/07 01:37:27;;;;;;;1999.90;999.90;;;;;;;12.76;84.89;100558.22;10374334;28;20386;-64
2023/11/07 01:42:30;;;;;;;1999.90;999.90;;;;;;;12.61;84.19;100554.03;10374881;28;20046;-64
2023/11/07 01:47:32;;;;;;;1999.90;999.90;;;;;;;12.58;87.23;100551.63;10374096;28;20477;-64
2023/11/07 01:52:35;;;;;;;1999.90;999.90;;;;;;;12.64;85.07;100561.69;10374773;28;20053;-64
2023/11/07 01:57:38;;;;;;;1999.90;999.90;;;;;;;12.61;89.00;100554.88;10372860;28;20046;-64
2023/11/07 02:02:41;;;;;;;1999.90;999.90;;;;;;;12.43;85.72;100564.03;10373337;28;20049;-64
2023/11/07 02:07:44;;;;;;;1999.90;999.90;;;;;;;12.25;87.02;100566.13;10378102;28;20089;-64
2023/11/07 02:12:47;;;;;;;1999.90;999.90;;;;;;;12.57;85.98;100561.28;10381938;28;20054;-64
2023/11/07 02:17:50;;;;;;;1999.90;999.90;;;;;;;12.75;86.61;100566.22;10380396;28;20477;-64
2023/11/07 02:23:09;;;;;;;1999.90;999.90;;;;;;;12.48;88.72;100566.34;10380606;28;20061;-64
2023/11/07 02:28:11;;;;;;;1999.90;999.90;;;;;;;12.70;85.96;100569.16;10380695;28;20054;-64
2023/11/07 02:33:14;;;;;;;1999.90;999.90;;;;;;;12.29;86.82;100564.13;10381514;28;20050;-64
2023/11/07 02:38:19;;;;;;;1999.90;999.90;;;;;;;12.23;89.29;100560.97;10388750;22;20050;-65
2023/11/07 02:43:22;;;;;;;1999.90;999.90;;;;;;;12.42;86.82;100562.34;10380551;28;20045;-65
2023/11/07 02:48:24;;;;;;;1999.90;999.90;;;;;;;12.48;87.27;100558.47;10379790;28;20394;-65
2023/11/07 02:53:26;;;;;;;1999.90;999.90;;;;;;;12.49;87.09;100553.13;10380850;28;20125;-65
2023/11/07 02:58:29;;;;;;;1999.90;999.90;;;;;;;12.24;89.49;100554.78;10380570;28;20062;-65
2023/11/07 03:03:32;;;;;;;1999.90;999.90;;;;;;;12.59;88.34;100556.78;10378544;28;20057;-65
2023/11/07 03:08:35;;;;;;;1999.90;999.90;;;;;;;12.67;88.63;100545.72;10378476;28;20512;-65
2023/11/07 03:13:37;;;;;;;1999.90;999.90;;;;;;;12.52;89.51;100545.00;10379455;28;20073;-65
2023/11/07 03:18:40;;;;;;;1999.90;999.90;;;;;;;12.54;86.69;100548.38;10377103;28;20049;-65
2023/11/07 03:23:43;;;;;;;1999.90;999.90;;;;;;;12.43;89.24;100550.91;10378997;28;20428;-65
2023/11/07 03:28:46;;;;;;;1999.90;999.90;;;;;;;12.36;89.05;100547.84;10379508;28;20053;-65
2023/11/07 03:33:48;;;;;;;1999.90;999.90;;;;;;;12.66;87.90;100551.06;10379247;28;20045;-65
2023/11/07 03:38:50;;;;;;;1999.90;999.90;;;;;;;12.66;88.91;100554.56;10378347;28;20058;-65
2023/11/07 03:43:53;;;;;;;1999.90;999.90;;;;;;;12.01;87.50;100550.25;10379304;28;20046;-66
2023/11/07 03:48:56;;;;;;;1999.90;999.90;;;;;;;13.00;86.59;100558.25;10376903;28;20493;-65
2023/11/07 03:53:58;;;;;;;1999.90;999.90;;;;;;;13.20;86.07;100567.34;10377860;28;20068;-65
2023/11/07 03:59:01;;;;;;;1999.90;999.90;;;;;;;12.66;87.73;100569.47;10378265;28;20061;-65
2023/11/07 04:04:04;;;;;;;1999.90;999.90;;;;;;;12.65;88.76;100563.38;10378025;28;20054;-65
2023/11/07 04:09:07;;;;;;;1999.90;999.90;;;;;;;12.72;86.09;100566.41;10376747;28;20137;-65
2023/11/07 04:14:10;;;;;;;1999.90;999.90;;;;;;;12.67;87.40;100566.72;10377663;28;20075;-65
2023/11/07 04:19:13;;;;;;;1999.90;999.90;;;;;;;12.77;89.31;100565.13;10375752;28;20485;-65
2023/11/07 04:24:15;;;;;;;1999.90;999.90;;;;;;;12.71;88.64;100576.09;10377270;28;20049;-66
2023/11/07 04:29:19;;;;;;;1999.90;999.90;;;;;;;13.11;85.92;100578.53;10376366;28;20481;-65
2023/11/07 04:34:21;;;;;;;1999.90;999.90;;;;;;;12.62;88.29;100579.34;10376363;28;20499;-65
2023/11/07 04:39:24;;;;;;;1999.90;999.90;;;;;;;12.51;87.47;100574.84;10374966;28;20119;-65
2023/11/07 04:44:26;;;;;;;1999.90;999.90;;;;;;;12.61;87.82;100562.75;10375915;28;20477;-65
2023/11/07 04:49:29;;;;;;;1999.90;999.90;;;;;;;12.62;87.25;100566.22;10376907;28;20104;-65
2023/11/07 04:54:32;;;;;;;1999.90;999.90;;;;;;;12.53;87.67;100569.50;10375638;28;20477;-65
2023/11/07 04:59:36;;;;;;;1999.90;999.90;;;;;;;13.16;84.56;100575.56;10376031;28;20056;-65
2023/11/07 05:04:39;;;;;;;1999.90;999.90;;;;;;;12.44;89.18;100573.59;10375219;28;20412;-65
2023/11/07 05:09:41;;;;;;;1999.90;999.90;;;;;;;12.98;86.29;100575.09;10375768;28;20049;-65
2023/11/07 05:14:43;;;;;;;1999.90;999.90;;;;;;;12.96;85.18;100585.72;10375599;28;20073;-65
2023/11/07 05:19:46;;;;;;;1999.90;999.90;;;;;;;12.78;87.00;100581.75;10374920;28;20136;-65
2023/11/07 05:24:48;;;;;;;1999.90;999.90;;;;;;;12.69;85.88;100575.34;10375231;28;20057;-65
2023/11/07 05:29:51;;;;;;;1999.90;999.90;;;;;;;12.42;86.66;100578.94;10374538;28;20485;-65
2023/11/07 05:34:53;;;;;;;1999.90;999.90;;;;;;;12.85;84.61;100588.25;10374391;28;20045;-66
2023/11/07 05:39:56;;;;;;;1999.90;999.90;;;;;;;12.53;86.75;100583.44;10373805;28;20492;-65
2023/11/07 05:44:58;;;;;;;1999.90;999.90;;;;;;;12.68;88.66;100578.94;10374154;28;20481;-66
2023/11/07 05:50:04;;;;;;;1999.90;999.90;;;;;;;12.30;89.07;100590.28;10374769;28;20061;-65
2023/11/07 05:55:07;;;;;;;1999.90;999.90;;;;;;;12.83;86.93;100596.25;10374558;28;20050;-65
2023/11/07 06:00:10;;;;;;;1999.90;999.90;;;;;;;12.81;88.71;100597.31;10373153;28;20525;-65
2023/11/07 06:05:13;;;;;;;1999.90;999.90;;;;;;;12.85;87.69;100596.13;10374400;28;20045;-65
2023/11/07 06:10:19;;;;;;;1999.90;999.90;;;;;;;13.18;86.16;100602.59;10374384;28;20050;-66
2023/11/07 06:15:23;;;;;;;1999.90;999.90;;;;;;;12.61;86.87;100601.31;10372543;28;20462;-65
2023/11/07 06:20:26;;;;;;;1999.90;999.90;;;;;;;13.16;84.16;100604.47;10373108;28;20053;-65
2023/11/07 06:25:29;;;;;;;1999.90;999.90;;;;;;;13.46;84.06;100617.22;10372862;28;20129;-65
2023/11/07 06:30:31;;;;;;;1999.90;999.90;;;;;;;12.74;85.98;100612.66;10374037;28;20209;-65
2023/11/07 06:35:34;;;;;;;1999.90;999.90;;;;;;;13.01;85.05;100622.16;10373735;28;20057;-65
2023/11/07 06:40:36;;;;;;;1999.90;999.90;;;;;;;13.07;85.91;100628.78;10373955;28;20130;-65
2023/11/07 06:45:39;;;;;;;1999.90;999.90;;;;;;;12.96;85.54;100643.53;10372389;28;20127;-66
2023/11/07 06:50:41;;;;;;;1999.90;999.90;;;;;;;13.09;83.27;100647.91;10373631;28;20045;-65
2023/11/07 06:55:43;;;;;;;1999.90;999.90;;;;;;;13.10;83.55;100647.81;10379332;28;20108;-65
2023/11/07 07:00:46;;;;;;;1999.90;999.90;;;;;;;13.05;86.05;100646.47;10378824;28;20495;-65
2023/11/07 07:05:48;;;;;;;1999.90;999.90;;;;;;;13.23;83.14;100652.19;10379393;28;20129;-65
2023/11/07 07:10:51;;;;;;;1999.90;999.90;;;;;;;13.52;82.55;100652.78;10380257;28;20060;-65
2023/11/07 07:15:54;;;;;;;1999.90;999.90;;;;;;;12.77;86.18;100659.72;10379435;28;20120;-65
2023/11/07 07:20:57;;;;;;;1999.90;999.90;;;;;;;13.11;84.17;100660.00;10379839;28;20049;-65
2023/11/07 07:26:01;;;;;;;1999.90;999.90;;;;;;;13.04;83.94;100660.53;10378870;28;20046;-66
2023/11/07 07:31:07;;;;;;;1999.90;999.90;;;;;;;13.25;82.44;100659.03;10379468;28;20074;-65
2023/11/07 07:36:14;;;;;;;1999.90;999.90;;;;;;;12.83;85.17;100668.97;10377401;28;20060;-65
2023/11/07 07:41:17;;;;;;;1999.90;999.90;;;;;;;13.35;83.85;100667.97;10378374;28;20481;-66
2023/11/07 07:46:22;;;;;;;1999.90;999.90;;;;;;;13.74;82.35;100675.75;10378149;28;20128;-65
2023/11/07 07:51:24;;;;;;;1999.90;999.90;;;;;;;13.42;81.38;100672.81;10378670;28;20136;-66
2023/11/07 07:56:27;;;;;;;1999.90;999.90;;;;;;;12.99;83.38;100676.63;10378422;28;20048;-65
2023/11/07 08:01:29;;;;;;;1999.90;999.90;;;;;;;13.36;84.33;100690.72;10378160;28;20053;-66
2023/11/07 08:06:32;;;;;;;1999.90;999.90;;;;;;;13.92;82.30;100692.00;10377577;28;20056;-65
2023/11/07 08:11:34;;;;;;;1999.90;999.90;;;;;;;13.72;80.87;100693.44;10377199;28;20081;-66
2023/11/07 08:16:36;;;;;;;1999.90;999.90;;;;;;;13.75;82.58;100701.09;10377212;28;20125;-66
2023/11/07 08:21:40;;;;;;;1999.90;999.90;;;;;;;13.26;84.08;100697.50;10377464;28;20054;-65
2023/11/07 08:26:42;;;;;;;1999.90;999.90;;;;;;;13.56;82.33;100715.56;10377242;28;20056;-66
2023/11/07 08:31:44;;;;;;;1999.90;999.90;;;;;;;13.50;84.35;100712.53;10376978;28;20132;-65
2023/11/07 08:36:47;;;;;;;1999.90;999.90;;;;;;;13.64;81.38;100715.03;10376731;28;20054;-65
2023/11/07 08:42:08;;;;;;;1999.90;999.90;;;;;;;13.93;80.19;100731.34;10375173;28;20053;-65
2023/11/07 08:47:13;;;;;;;1999.90;999.90;;;;;;;14.48;75.93;100734.34;10375324;28;20092;-65
2023/11/07 08:52:16;;;;;;;1999.90;999.90;;;;;;;13.79;80.68;100736.78;10376907;28;20136;-65
2023/11/07 08:57:18;;;;;;;1999.90;999.90;;;;;;;13.93;79.37;100739.22;10376252;28;20046;-65
2023/11/07 09:02:21;;;;;;;1999.90;999.90;;;;;;;14.20;77.82;100742.59;10376041;28;20054;-65
2023/11/07 09:07:23;;;;;;;1999.90;999.90;;;;;;;14.18;79.02;100747.97;10375182;28;20500;-65
2023/11/07 09:12:26;;;;;;;1999.90;999.90;;;;;;;13.69;80.14;100757.63;10375586;28;20064;-65
2023/11/07 09:17:28;;;;;;;1999.90;999.90;;;;;;;13.87;78.79;100757.25;10374727;28;20108;-66
2023/11/07 09:22:30;;;;;;;1999.90;999.90;;;;;;;14.10;76.21;100756.47;10374430;28;20145;-65
2023/11/07 09:27:33;;;;;;;1999.90;999.90;;;;;;;13.68;79.15;100763.00;10375015;28;20042;-65
2023/11/07 09:32:37;;;;;;;1999.90;999.90;;;;;;;14.49;76.35;100758.88;10373478;28;20056;-65
2023/11/07 09:37:39;;;;;;;1999.90;999.90;;;;;;;14.05;76.60;100771.72;10388275;28;20111;-65
2023/11/07 09:42:44;;;;;;;1999.90;999.90;;;;;;;14.62;74.67;100772.00;10374978;28;20060;-65
2023/11/07 09:47:48;;;;;;;1999.90;999.90;;;;;;;14.42;75.90;100763.75;10390204;28;20055;-65
2023/11/07 09:52:52;;;;;;;1999.90;999.90;;;;;;;19.23;63.20;100757.94;10389865;28;20045;-66
2023/11/07 09:58:08;;;;;;;1999.90;999.90;;;;;;;19.82;57.71;100760.31;10374623;28;20107;-66
2023/11/07 10:03:19;;;;;;;1999.90;999.90;;;;;;;18.20;62.09;100767.38;10387742;28;20397;-66
2023/11/07 10:08:25;;;;;;;1999.90;999.90;;;;;;;16.80;66.64;100769.75;10373807;28;20400;-66
2023/11/07 10:13:29;;;;;;;1999.90;999.90;;;;;;;17.06;64.88;100764.94;10374371;28;20074;-66
2023/11/07 10:18:46;;;;;;;1999.90;999.90;;;;;;;19.54;57.35;100755.00;10374272;28;20130;-65
2023/11/07 10:23:54;;;;;;;1999.90;999.90;;;;;;;18.35;56.75;100765.97;10389369;28;20088;-66
2023/11/07 10:29:13;;;;;;;1999.90;999.90;;;;;;;20.04;55.19;100761.72;10378390;28;20053;-66
2023/11/07 10:34:20;;;;;;;1999.90;999.90;;;;;;;22.17;50.94;100766.63;10395240;28;20050;-66
2023/11/07 10:39:25;;;;;;;1999.90;999.90;;;;;;;19.11;58.71;100772.34;10380684;28;20497;-66
2023/11/07 10:44:31;;;;;;;1999.90;999.90;;;;;;;19.39;57.47;100765.25;10381322;28;20143;-66
2023/11/07 10:49:33;;;;;;;1999.90;999.90;;;;;;;19.26;58.62;100759.44;10381180;28;20054;-66
2023/11/07 10:54:36;;;;;;;1999.90;999.90;;;;;;;18.69;57.14;100768.22;10380266;28;20486;-66
2023/11/07 10:59:42;;;;;;;1999.90;999.90;;;;;;;20.10;56.47;100758.44;10395957;28;20060;-66
2023/11/07 11:04:45;;;;;;;1999.90;999.90;;;;;;;17.95;57.85;100766.09;10380522;28;20081;-66
2023/11/07 11:09:48;;;;;;;1999.90;999.90;;;;;;;16.00;61.69;100778.94;10380234;28;20561;-66
2023/11/07 11:14:52;;;;;;;1999.90;999.90;;;;;;;16.65;63.45;100777.16;10395303;28;20128;-66
2023/11/07 11:20:10;;;;;;;1999.90;999.90;;;;;;;15.66;64.08;100781.59;10394324;28;20394;-66
2023/11/07 11:25:32;;;;;;;1999.90;999.90;;;;;;;16.10;64.17;100771.94;10394183;28;20072;-66
2023/11/07 11:30:38;;;;;;;1999.90;999.90;;;;;;;16.51;64.94;100761.63;10377824;28;20493;-66
2023/11/07 11:35:43;;;;;;;1999.90;999.90;;;;;;;15.70;65.26;100766.34;10379171;28;20129;-66
2023/11/07 11:40:52;;;;;;;1999.90;999.90;;;;;;;16.65;63.59;100766.56;10392678;28;20054;-66
2023/11/07 11:45:59;;;;;;;1999.90;999.90;;;;;;;16.50;63.29;100762.56;10378257;28;20486;-66
2023/11/07 11:51:31;;;;;;;1999.90;999.90;;;;;;;16.06;64.86;100772.34;10393646;28;20046;-66
2023/11/07 11:56:34;;;;;;;1999.90;999.90;;;;;;;16.47;64.20;100773.38;10377926;28;20504;-66
2023/11/07 12:01:52;;;;;;;1999.90;999.90;;;;;;;16.24;64.78;100778.78;10392809;28;20058;-66
2023/11/07 12:07:22;;;;;;;1999.90;999.90;;;;;;;16.53;64.76;100771.06;10392519;28;20060;-66
2023/11/07 12:12:24;;;;;;;1999.90;999.90;;;;;;;15.59;66.18;100775.13;10376556;28;20453;-66
2023/11/07 12:17:32;;;;;;;1999.90;999.90;;;;;;;16.15;63.71;100777.72;10377095;28;20400;-65
2023/11/07 12:22:35;;;;;;;1999.90;999.90;;;;;;;16.25;64.67;100774.31;10392688;28;20141;-66
2023/11/07 12:27:39;;;;;;;1999.90;999.90;;;;;;;16.07;65.80;100774.88;10391662;28;20425;-66
2023/11/07 12:32:41;;;;;;;1999.90;999.90;;;;;;;16.16;64.28;100765.34;10377241;28;20050;-66
2023/11/07 12:37:44;;;;;;;1999.90;999.90;;;;;;;16.15;64.91;100775.09;10391736;28;20142;-66
2023/11/07 12:42:53;;;;;;;1999.90;999.90;;;;;;;15.17;68.82;100769.63;10391850;28;20401;-66
2023/11/07 12:48:00;;;;;;;1999.90;999.90;;;;;;;15.34;67.96;100760.41;10391739;28;20046;-66
2023/11/07 12:53:05;;;;;;;1999.90;999.90;;;;;;;15.50;67.68;100757.38;10376934;28;20061;-65
2023/11/07 12:58:09;;;;;;;1999.90;999.90;;;;;;;15.23;66.59;100764.72;10391270;28;20050;-66
2023/11/07 13:03:12;;;;;;;1999.90;999.90;;;;;;;16.19;63.99;100764.25;10376014;28;20107;-66
2023/11/07 13:08:26;;;;;;;1999.90;999.90;;;;;;;15.97;64.42;100763.38;10365819;28;20398;-66
2023/11/07 13:13:28;;;;;;;1999.90;999.90;;;;;;;15.48;66.82;100765.41;10375540;28;20054;-65
2023/11/07 13:18:30;;;;;;;1999.90;999.90;;;;;;;15.32;65.14;100757.03;10375418;28;20057;-66
2023/11/07 13:23:33;;;;;;;1999.90;999.90;;;;;;;15.72;64.74;100765.28;10390342;28;20045;-66
2023/11/07 13:28:38;;;;;;;1999.90;999.90;;;;;;;15.36;66.82;100772.50;10374089;28;20049;-66
2023/11/07 13:33:42;;;;;;;1999.90;999.90;;;;;;;15.36;65.26;100775.13;10388829;28;20088;-65
2023/11/07 13:38:48;;;;;;;1999.90;999.90;;;;;;;15.50;65.27;100776.72;10389562;28;20054;-66
2023/11/07 13:43:50;;;;;;;1999.90;999.90;;;;;;;15.01;64.81;100789.25;10374224;28;20581;-66
2023/11/07 13:48:53;;;;;;;1999.90;999.90;;;;;;;15.36;65.26;100784.84;10374722;28;20130;-66
2023/11/07 13:53:56;;;;;;;1999.90;999.90;;;;;;;15.44;67.33;100782.47;10374155;28;20464;-65
2023/11/07 13:58:58;;;;;;;1999.90;999.90;;;;;;;15.48;66.97;100790.97;10389844;28;20104;-66
2023/11/07 14:04:01;;;;;;;1999.90;999.90;;;;;;;15.76;65.27;100787.03;10380020;28;20061;-66
2023/11/07 14:09:04;;;;;;;1999.90;999.90;;;;;;;15.49;64.73;100793.50;10382660;28;20052;-66
2023/11/07 14:14:07;;;;;;;1999.90;999.90;;;;;;;15.40;65.72;100794.22;10381320;28;20104;-65
2023/11/07 14:19:09;;;;;;;1999.90;999.90;;;;;;;15.00;67.38;100805.19;10382277;28;20080;-65
2023/11/07 14:24:12;;;;;;;1999.90;999.90;;;;;;;15.41;67.29;100796.72;10381490;28;20092;-65
2023/11/07 14:29:14;;;;;;;1999.90;999.90;;;;;;;15.86;65.51;100797.69;10381227;28;20046;-66
2023/11/07 14:34:38;;;;;;;1999.90;999.90;;;;;;;14.83;67.04;100802.03;10382295;28;20054;-66
2023/11/07 14:39:41;;;;;;;1999.90;999.90;;;;;;;15.22;66.36;100791.19;10396299;28;20046;-66
2023/11/07 14:44:44;;;;;;;1999.90;999.90;;;;;;;15.64;66.34;100791.44;10381196;28;20054;-65
2023/11/07 14:54:54;;;;;;;1999.90;999.90;;;;;;;15.16;67.42;100803.06;10378878;28;20148;-66
2023/11/07 15:00:00;;;;;;;1999.90;999.90;;;;;;;14.76;69.17;100808.72;10380140;28;20073;-66
2023/11/07 15:05:04;;;;;;;1999.90;999.90;;;;;;;15.18;70.01;100803.78;10379661;28;20108;-66
2023/11/07 15:10:10;;;;;;;1999.90;999.90;;;;;;;14.85;70.07;100809.81;10363034;28;20050;-66
2023/11/07 15:15:14;;;;;;;1999.90;999.90;;;;;;;15.10;67.96;100813.25;10379064;28;20048;-66
2023/11/07 15:20:17;;;;;;;1999.90;999.90;;;;;;;15.01;69.71;100817.41;10380075;28;20108;-66
2023/11/07 15:25:20;;;;;;;1999.90;999.90;;;;;;;14.86;69.66;100819.41;10379785;28;20052;-66
2023/11/07 15:30:24;;;;;;;1999.90;999.90;;;;;;;14.32;71.90;100820.69;10378475;28;20049;-66
2023/11/07 15:35:29;;;;;;;1999.90;999.90;;;;;;;15.40;68.33;100810.88;10379871;28;20092;-66
2023/11/07 15:40:31;;;;;;;1999.90;999.90;;;;;;;14.83;70.18;100820.47;10378683;28;20058;-66
2023/11/07 15:45:34;;;;;;;1999.90;999.90;;;;;;;14.36;71.40;100822.16;10378946;28;20050;-66
2023/11/07 15:50:38;;;;;;;1999.90;999.90;;;;;;;14.84;69.70;100824.81;10378205;28;20386;-66
2023/11/07 15:55:41;;;;;;;1999.90;999.90;;;;;;;14.28;69.40;100820.09;10378242;28;20418;-66
2023/11/07 16:00:45;;;;;;;1999.90;999.90;;;;;;;14.57;70.55;100819.75;10378461;28;20046;-66
2023/11/07 16:05:48;;;;;;;1999.90;999.90;;;;;;;14.53;71.05;100813.03;10378085;28;20057;-66
2023/11/07 16:10:51;;;;;;;1999.90;999.90;;;;;;;15.04;70.15;100814.53;10377420;28;20521;-65
2023/11/07 16:15:54;;;;;;;1999.90;999.90;;;;;;;14.77;70.37;100828.00;10377203;28;20045;-66
2023/11/07 16:20:56;;;;;;;1999.90;999.90;;;;;;;14.33;71.11;100814.50;10377654;28;20058;-66
2023/11/07 16:26:01;;;;;;;1999.90;999.90;;;;;;;14.77;69.78;100820.09;10375265;28;20404;-66
2023/11/07 16:31:04;;;;;;;1999.90;999.90;;;;;;;14.35;71.72;100819.66;10377782;28;20125;-66
2023/11/07 16:36:06;;;;;;;1999.90;999.90;;;;;;;14.29;71.44;100816.50;10377086;28;20045;-66
2023/11/07 16:41:09;;;;;;;1999.90;999.90;;;;;;;14.61;70.35;100823.03;10376854;28;20128;-66
2023/11/07 16:46:15;;;;;;;1999.90;999.90;;;;;;;14.53;70.99;100820.09;10375453;28;20440;-66
2023/11/07 16:51:18;;;;;;;1999.90;999.90;;;;;;;14.71;70.20;100831.09;10375895;28;20153;-65
2023/11/07 16:56:22;;;;;;;1999.90;999.90;;;;;;;14.67;71.01;100825.22;10375300;28;20046;-66
2023/11/07 17:01:26;;;;;;;1999.90;999.90;;;;;;;14.62;70.39;100827.34;10375070;28;20077;-66
2023/11/07 17:06:28;;;;;;;1999.90;999.90;;;;;;;13.61;73.28;100825.72;10374836;28;20046;-66
2023/11/07 17:11:32;;;;;;;1999.90;999.90;;;;;;;14.21;71.32;100820.66;10375889;28;20061;-66
2023/11/07 17:16:35;;;;;;;1999.90;999.90;;;;;;;13.77;73.13;100820.25;10357696;28;20046;-66
2023/11/07 17:21:37;;;;;;;1999.90;999.90;;;;;;;13.69;74.38;100822.56;10375518;28;20057;-65
2023/11/07 17:26:39;;;;;;;1999.90;999.90;;;;;;;13.66;73.49;100823.63;10375398;28;20120;-66
2023/11/07 17:31:42;;;;;;;1999.90;999.90;;;;;;;13.53;74.47;100833.31;10375278;28;20077;-66
2023/11/07 17:36:45;;;;;;;1999.90;999.90;;;;;;;13.60;74.34;100824.06;10374970;28;20123;-66
2023/11/07 17:41:52;;;;;;;1999.90;999.90;;;;;;;13.16;75.28;100815.63;10373733;28;20100;-66
2023/11/07 17:46:54;;;;;;;1999.90;999.90;;;;;;;13.22;75.50;100816.16;10373814;28;20217;-65
2023/11/07 17:51:57;;;;;;;1999.90;999.90;;;;;;;13.08;76.45;100819.69;10374643;28;20104;-65
2023/11/07 17:57:00;;;;;;;1999.90;999.90;;;;;;;13.23;75.84;100817.81;10374742;28;20125;-65
2023/11/07 18:02:03;;;;;;;1999.90;999.90;;;;;;;12.78;77.64;100824.28;10374586;28;20057;-65
2023/11/07 18:07:05;;;;;;;1999.90;999.90;;;;;;;12.64;77.08;100819.09;10373254;28;20057;-65
2023/11/07 18:12:09;;;;;;;1999.90;999.90;;;;;;;12.77;77.04;100830.47;10356910;28;20125;-66
2023/11/07 18:17:12;;;;;;;1999.90;999.90;;;;;;;13.52;74.57;100839.53;10357018;28;20058;-65
2023/11/07 18:22:14;;;;;;;1999.90;999.90;;;;;;;13.13;76.74;100839.50;10373671;28;20129;-65
2023/11/07 18:27:18;;;;;;;1999.90;999.90;;;;;;;12.85;73.66;100848.38;10374123;28;20049;-65
2023/11/07 18:32:21;;;;;;;1999.90;999.90;;;;;;;13.15;76.55;100849.91;10373446;28;20050;-65
2023/11/07 18:37:25;;;;;;;1999.90;999.90;;;;;;;12.65;76.60;100852.31;10373378;28;20124;-65
2023/11/07 18:42:28;;;;;;;1999.90;999.90;;;;;;;12.94;75.56;100853.00;10373359;28;20084;-65
2023/11/07 18:47:31;;;;;;;1999.90;999.90;;;;;;;12.79;75.64;100847.00;10374881;28;20050;-65
2023/11/07 18:52:34;;;;;;;1999.90;999.90;;;;;;;13.23;73.81;100847.59;10380984;28;20092;-65
2023/11/07 18:57:37;;;;;;;1999.90;999.90;;;;;;;12.69;74.95;100845.06;10380305;28;20056;-65
2023/11/07 19:02:39;;;;;;;1999.90;999.90;;;;;;;12.66;75.48;100856.63;10380781;28;20061;-65
2023/11/07 19:07:41;;;;;;;1999.90;999.90;;;;;;;12.35;75.91;100850.72;10362918;28;20057;-65
2023/11/07 19:12:46;;;;;;;1999.90;999.90;;;;;;;12.90;74.17;100845.44;10380372;28;20084;-65
2023/11/07 19:17:49;;;;;;;1999.90;999.90;;;;;;;13.04;74.32;100849.78;10379480;28;20557;-65
2023/11/07 19:22:51;;;;;;;1999.90;999.90;;;;;;;12.61;75.32;100850.84;10380030;28;20057;-65
2023/11/07 19:27:55;;;;;;;1999.90;999.90;;;;;;;12.79;76.59;100847.00;10378004;28;20045;-66
2023/11/07 19:32:57;;;;;;;1999.90;999.90;;;;;;;12.54;76.04;100854.78;10379487;28;20049;-65
2023/11/07 19:38:00;;;;;;;1999.90;999.90;;;;;;;12.25;76.68;100863.59;10378810;28;20481;-65
2023/11/07 19:43:02;;;;;;;1999.90;999.90;;;;;;;12.47;75.27;100858.75;10379182;28;20077;-65
2023/11/07 19:48:05;;;;;;;1999.90;999.90;;;;;;;12.87;75.06;100866.66;10377081;28;20055;-65
2023/11/07 19:53:09;;;;;;;1999.90;999.90;;;;;;;12.59;76.16;100871.06;10378197;28;20540;-65
2023/11/07 19:58:14;;;;;;;1999.90;999.90;;;;;;;12.76;75.62;100877.84;10377983;28;20409;-65
2023/11/07 20:03:16;;;;;;;1999.90;999.90;;;;;;;13.00;75.53;100876.25;10377191;28;20133;-65
2023/11/07 20:08:19;;;;;;;1999.90;999.90;;;;;;;12.43;77.78;100877.31;10361320;28;20077;-65
2023/11/07 20:13:21;;;;;;;1999.90;999.90;;;;;;;12.98;74.25;100880.78;10377987;28;20094;-65
2023/11/07 20:18:24;;;;;;;1999.90;999.90;;;;;;;12.77;75.59;100879.56;10377126;28;20573;-65
2023/11/07 20:23:27;;;;;;;1999.90;999.90;;;;;;;12.16;78.83;100881.72;10377484;28;20050;-66
2023/11/07 20:28:33;;;;;;;1999.90;999.90;;;;;;;12.76;75.64;100876.09;10376316;28;20096;-65
2023/11/07 20:33:35;;;;;;;1999.90;999.90;;;;;;;12.26;76.93;100888.06;10377291;28;20412;-65
2023/11/07 20:38:50;;;;;;;1999.90;999.90;;;;;;;12.22;77.57;100897.91;10361223;28;20100;-66
2023/11/07 20:43:54;;;;;;;1999.90;999.90;;;;;;;12.39;76.28;100890.72;10376901;28;20128;-65
2023/11/07 20:48:57;;;;;;;1999.90;999.90;;;;;;;12.10;79.06;100900.44;10376633;28;20045;-65
2023/11/07 20:54:00;;;;;;;1999.90;999.90;;;;;;;12.63;78.17;100898.84;10376118;28;20104;-65
2023/11/07 20:59:02;;;;;;;1999.90;999.90;;;;;;;12.53;78.05;100892.50;10375671;28;20386;-65
2023/11/07 21:04:05;;;;;;;1999.90;999.90;;;;;;;12.87;76.92;100887.69;10376168;28;20050;-65
2023/11/07 21:09:08;;;;;;;1999.90;999.90;;;;;;;12.54;77.57;100889.78;10374759;28;20054;-65
2023/11/07 21:14:10;;;;;;;1999.90;999.90;;;;;;;12.74;77.76;100885.00;10375426;28;20096;-65
2023/11/07 21:19:13;;;;;;;1999.90;999.90;;;;;;;12.26;77.32;100886.28;10375711;28;20048;-65
2023/11/07 21:24:15;;;;;;;1999.90;999.90;;;;;;;12.15;79.58;100878.22;10374940;28;20149;-66
2023/11/07 21:29:18;;;;;;;1999.90;999.90;;;;;;;12.54;78.39;100899.41;10373524;28;20481;-66
2023/11/07 21:34:20;;;;;;;1999.90;999.90;;;;;;;12.94;78.21;100891.59;10375333;28;20056;-65
2023/11/07 21:39:24;;;;;;;1999.90;999.90;;;;;;;12.42;78.67;100896.66;10373940;28;20046;-65
2023/11/07 21:44:26;;;;;;;1999.90;999.90;;;;;;;12.56;77.74;100893.16;10375072;28;20050;-66
2023/11/07 21:49:29;;;;;;;1999.90;999.90;;;;;;;13.24;75.52;100891.34;10374263;28;20050;-66
2023/11/07 21:54:32;;;;;;;1999.90;999.90;;;;;;;12.42;78.27;100899.28;10373929;28;20085;-65
2023/11/07 21:59:35;;;;;;;1999.90;999.90;;;;;;;12.42;78.00;100903.66;10374084;28;20046;-66
2023/11/07 22:04:39;;;;;;;1999.90;999.90;;;;;;;12.75;77.08;100905.09;10372737;28;20054;-65